sensor_id;sensor_type;location;lat;lon;timestamp;P1;durP1;ratioP1;P2;durP2;ratioP2
48124;SDS011;33908;47.436;18.918;2023-03-16T17:33:05;0.30;;;0.30;;
48124;SDS011;33908;47.436;18.918;2023-03-16T17:35:39;0.10;;;0.10;;
48124;SDS011;33908;47.436;18.918;2023-03-16T17:38:17;0.28;;;0.28;;
48124;SDS011;33908;47.436;18.918;2023-03-16T17:40:47;0.37;;;0.37;;
48124;SDS011;33908;47.436;18.918;2023-03-16T17:43:17;1.90;;;1.75;;
48124;SDS011;33908;47.436;18.918;2023-03-16T17:45:46;0.93;;;0.75;;
48124;SDS011;33908;47.436;18.918;2023-03-16T17:48:16;0.57;;;0.57;;
48124;SDS011;33908;47.436;18.918;2023-03-16T17:50:45;2.78;;;0.50;;
48124;SDS011;33908;47.436;18.918;2023-03-16T17:53:14;0.93;;;0.93;;
48124;SDS011;33908;47.436;18.918;2023-03-16T17:55:44;0.32;;;0.32;;
48124;SDS011;33908;47.436;18.918;2023-03-16T17:58:34;1.33;;;1.27;;
48124;SDS011;33908;47.436;18.918;2023-03-16T18:01:01;0.22;;;0.22;;
48124;SDS011;33908;47.436;18.918;2023-03-16T18:03:30;1.62;;;1.17;;
48124;SDS011;33908;47.436;18.918;2023-03-16T18:05:59;3.92;;;3.15;;
48124;SDS011;33908;47.436;18.918;2023-03-16T18:08:28;6.15;;;2.53;;
48124;SDS011;33908;47.436;18.918;2023-03-16T18:10:57;3.35;;;3.15;;
48124;SDS011;33908;47.436;18.918;2023-03-16T18:13:31;3.20;;;1.30;;
48124;SDS011;33908;47.436;18.918;2023-03-16T18:16:04;4.87;;;1.67;;
48124;SDS011;33908;47.436;18.918;2023-03-16T18:18:35;1.52;;;1.42;;
48124;SDS011;33908;47.436;18.918;2023-03-16T18:21:04;6.93;;;3.80;;
48124;SDS011;33908;47.436;18.918;2023-03-16T18:23:32;2.58;;;1.25;;
48124;SDS011;33908;47.436;18.918;2023-03-16T18:26:01;1.08;;;1.08;;
48124;SDS011;33908;47.436;18.918;2023-03-16T18:28:30;5.43;;;3.20;;
48124;SDS011;33908;47.436;18.918;2023-03-16T18:30:59;6.07;;;2.35;;
48124;SDS011;33908;47.436;18.918;2023-03-16T18:33:32;0.73;;;0.73;;
48124;SDS011;33908;47.436;18.918;2023-03-16T18:36:16;0.75;;;0.75;;
48124;SDS011;33908;47.436;18.918;2023-03-16T18:38:46;1.10;;;0.95;;
48124;SDS011;33908;47.436;18.918;2023-03-16T18:41:19;5.72;;;2.58;;
48124;SDS011;33908;47.436;18.918;2023-03-16T18:43:49;0.57;;;0.55;;
48124;SDS011;33908;47.436;18.918;2023-03-16T18:48:49;1.58;;;1.48;;
48124;SDS011;33908;47.436;18.918;2023-03-16T18:51:19;1.42;;;1.33;;
48124;SDS011;33908;47.436;18.918;2023-03-16T18:53:48;3.95;;;1.60;;
48124;SDS011;33908;47.436;18.918;2023-03-16T18:56:21;1.20;;;1.20;;
48124;SDS011;33908;47.436;18.918;2023-03-16T18:58:50;0.80;;;0.80;;
48124;SDS011;33908;47.436;18.918;2023-03-16T19:01:26;8.50;;;1.17;;
48124;SDS011;33908;47.436;18.918;2023-03-16T19:03:56;1.08;;;0.75;;
48124;SDS011;33908;47.436;18.918;2023-03-16T19:06:26;2.50;;;1.87;;
48124;SDS011;33908;47.436;18.918;2023-03-16T19:09:02;1.55;;;1.45;;
48124;SDS011;33908;47.436;18.918;2023-03-16T19:11:31;0.75;;;0.75;;
48124;SDS011;33908;47.436;18.918;2023-03-16T19:14:00;0.20;;;0.20;;
48124;SDS011;33908;47.436;18.918;2023-03-16T19:16:28;0.85;;;0.85;;
48124;SDS011;33908;47.436;18.918;2023-03-16T19:18:56;0.75;;;0.45;;
48124;SDS011;33908;47.436;18.918;2023-03-16T19:21:24;3.00;;;2.80;;
48124;SDS011;33908;47.436;18.918;2023-03-16T19:23:56;1.98;;;1.33;;
48124;SDS011;33908;47.436;18.918;2023-03-16T19:26:25;1.27;;;1.20;;
48124;SDS011;33908;47.436;18.918;2023-03-16T19:28:53;0.20;;;0.20;;
48124;SDS011;33908;47.436;18.918;2023-03-16T19:31:22;0.40;;;0.40;;
48124;SDS011;33908;47.436;18.918;2023-03-16T19:33:52;1.20;;;1.10;;
48124;SDS011;33908;47.436;18.918;2023-03-16T19:36:27;1.27;;;0.82;;
48124;SDS011;33908;47.436;18.918;2023-03-16T19:38:57;0.37;;;0.37;;
48124;SDS011;33908;47.436;18.918;2023-03-16T19:41:26;1.65;;;1.20;;
48124;SDS011;33908;47.436;18.918;2023-03-16T19:44:03;0.77;;;0.77;;
48124;SDS011;33908;47.436;18.918;2023-03-16T19:46:34;1.85;;;1.52;;
48124;SDS011;33908;47.436;18.918;2023-03-16T19:49:02;0.57;;;0.57;;
48124;SDS011;33908;47.436;18.918;2023-03-16T19:51:30;5.20;;;2.30;;
48124;SDS011;33908;47.436;18.918;2023-03-16T19:53:59;6.87;;;3.85;;
48124;SDS011;33908;47.436;18.918;2023-03-16T19:56:28;5.12;;;3.78;;
48124;SDS011;33908;47.436;18.918;2023-03-16T19:58:55;5.43;;;5.03;;
48124;SDS011;33908;47.436;18.918;2023-03-16T20:01:25;4.28;;;1.40;;
48124;SDS011;33908;47.436;18.918;2023-03-16T20:03:59;3.20;;;2.92;;
48124;SDS011;33908;47.436;18.918;2023-03-16T20:06:27;4.78;;;4.37;;
48124;SDS011;33908;47.436;18.918;2023-03-16T20:08:55;2.83;;;2.65;;
48124;SDS011;33908;47.436;18.918;2023-03-16T20:11:24;2.15;;;1.98;;
48124;SDS011;33908;47.436;18.918;2023-03-16T20:13:54;3.72;;;3.42;;
48124;SDS011;33908;47.436;18.918;2023-03-16T20:16:26;3.33;;;2.62;;
48124;SDS011;33908;47.436;18.918;2023-03-16T20:18:57;3.80;;;2.47;;
48124;SDS011;33908;47.436;18.918;2023-03-16T20:21:27;3.28;;;2.97;;
48124;SDS011;33908;47.436;18.918;2023-03-16T20:23:55;2.92;;;2.20;;
48124;SDS011;33908;47.436;18.918;2023-03-16T20:26:26;5.53;;;3.47;;
48124;SDS011;33908;47.436;18.918;2023-03-16T20:28:58;1.37;;;1.30;;
48124;SDS011;33908;47.436;18.918;2023-03-16T20:31:27;1.67;;;1.58;;
48124;SDS011;33908;47.436;18.918;2023-03-16T20:33:57;6.90;;;2.17;;
48124;SDS011;33908;47.436;18.918;2023-03-16T20:36:25;1.98;;;1.87;;
48124;SDS011;33908;47.436;18.918;2023-03-16T20:38:53;1.95;;;1.85;;
48124;SDS011;33908;47.436;18.918;2023-03-16T20:41:25;4.32;;;1.12;;
48124;SDS011;33908;47.436;18.918;2023-03-16T20:43:58;1.92;;;1.83;;
48124;SDS011;33908;47.436;18.918;2023-03-16T20:46:27;0.85;;;0.85;;
48124;SDS011;33908;47.436;18.918;2023-03-16T20:48:57;3.72;;;3.10;;
48124;SDS011;33908;47.436;18.918;2023-03-16T20:51:27;0.40;;;0.40;;
48124;SDS011;33908;47.436;18.918;2023-03-16T20:53:55;1.52;;;1.42;;
48124;SDS011;33908;47.436;18.918;2023-03-16T20:56:23;4.85;;;2.17;;
48124;SDS011;33908;47.436;18.918;2023-03-16T20:58:52;3.25;;;2.87;;
48124;SDS011;33908;47.436;18.918;2023-03-16T21:01:22;3.12;;;2.20;;
48124;SDS011;33908;47.436;18.918;2023-03-16T21:03:51;11.95;;;5.35;;
48124;SDS011;33908;47.436;18.918;2023-03-16T21:06:22;3.15;;;2.90;;
48124;SDS011;33908;47.436;18.918;2023-03-16T21:08:53;7.82;;;5.70;;
48124;SDS011;33908;47.436;18.918;2023-03-16T21:11:23;9.18;;;4.97;;
48124;SDS011;33908;47.436;18.918;2023-03-16T21:14:02;9.60;;;7.55;;
48124;SDS011;33908;47.436;18.918;2023-03-16T21:16:31;6.25;;;5.30;;
48124;SDS011;33908;47.436;18.918;2023-03-16T21:18:59;5.03;;;4.55;;
48124;SDS011;33908;47.436;18.918;2023-03-16T21:21:27;6.30;;;5.05;;
48124;SDS011;33908;47.436;18.918;2023-03-16T21:23:54;21.33;;;6.22;;
48124;SDS011;33908;47.436;18.918;2023-03-16T21:26:23;9.43;;;6.00;;
48124;SDS011;33908;47.436;18.918;2023-03-16T21:28:55;7.37;;;3.50;;
48124;SDS011;33908;47.436;18.918;2023-03-16T21:31:23;5.78;;;4.50;;
48124;SDS011;33908;47.436;18.918;2023-03-16T21:33:53;3.83;;;3.50;;
48124;SDS011;33908;47.436;18.918;2023-03-16T21:36:21;6.82;;;4.75;;
48124;SDS011;33908;47.436;18.918;2023-03-16T21:38:53;1.80;;;1.70;;
48124;SDS011;33908;47.436;18.918;2023-03-16T21:41:23;3.97;;;2.85;;
48124;SDS011;33908;47.436;18.918;2023-03-16T21:43:51;12.13;;;4.35;;
48124;SDS011;33908;47.436;18.918;2023-03-16T21:46:21;7.75;;;6.28;;
48124;SDS011;33908;47.436;18.918;2023-03-16T21:48:51;4.28;;;3.95;;
48124;SDS011;33908;47.436;18.918;2023-03-16T21:51:22;7.22;;;6.55;;
48124;SDS011;33908;47.436;18.918;2023-03-16T21:53:52;3.28;;;2.97;;
48124;SDS011;33908;47.436;18.918;2023-03-16T21:56:21;3.75;;;3.17;;
48124;SDS011;33908;47.436;18.918;2023-03-16T21:58:50;3.22;;;2.92;;
48124;SDS011;33908;47.436;18.918;2023-03-16T22:03:52;1.58;;;1.48;;
48124;SDS011;33908;47.436;18.918;2023-03-16T22:06:24;3.78;;;3.47;;
48124;SDS011;33908;47.436;18.918;2023-03-16T22:08:55;2.62;;;2.42;;
48124;SDS011;33908;47.436;18.918;2023-03-16T22:11:24;3.40;;;2.45;;
48124;SDS011;33908;47.436;18.918;2023-03-16T22:13:57;1.30;;;1.25;;
48124;SDS011;33908;47.436;18.918;2023-03-16T22:16:26;2.50;;;2.40;;
48124;SDS011;33908;47.436;18.918;2023-03-16T22:18:56;6.37;;;5.90;;
48124;SDS011;33908;47.436;18.918;2023-03-16T22:21:31;1.95;;;1.85;;
48124;SDS011;33908;47.436;18.918;2023-03-16T22:24:00;4.22;;;3.78;;
48124;SDS011;33908;47.436;18.918;2023-03-16T22:26:28;4.18;;;1.92;;
48124;SDS011;33908;47.436;18.918;2023-03-16T22:28:57;4.30;;;2.05;;
48124;SDS011;33908;47.436;18.918;2023-03-16T22:31:33;2.25;;;2.08;;
48124;SDS011;33908;47.436;18.918;2023-03-16T22:34:01;2.55;;;2.35;;
48124;SDS011;33908;47.436;18.918;2023-03-16T22:36:30;0.65;;;0.65;;
48124;SDS011;33908;47.436;18.918;2023-03-16T22:38:59;2.28;;;2.17;;
48124;SDS011;33908;47.436;18.918;2023-03-16T22:41:29;2.28;;;2.17;;
48124;SDS011;33908;47.436;18.918;2023-03-16T22:43:57;2.17;;;2.08;;
48124;SDS011;33908;47.436;18.918;2023-03-16T22:46:26;2.15;;;1.95;;
48124;SDS011;33908;47.436;18.918;2023-03-16T22:48:55;4.32;;;3.92;;
48124;SDS011;33908;47.436;18.918;2023-03-16T22:51:41;2.58;;;2.37;;
48124;SDS011;33908;47.436;18.918;2023-03-16T22:54:10;10.50;;;3.03;;
48124;SDS011;33908;47.436;18.918;2023-03-16T22:56:40;1.30;;;1.20;;
48124;SDS011;33908;47.436;18.918;2023-03-16T22:59:10;1.00;;;1.00;;
48124;SDS011;33908;47.436;18.918;2023-03-16T23:01:41;1.33;;;1.27;;
48124;SDS011;33908;47.436;18.918;2023-03-16T23:06:47;0.52;;;0.52;;
48124;SDS011;33908;47.436;18.918;2023-03-16T23:09:16;4.12;;;2.37;;
48124;SDS011;33908;47.436;18.918;2023-03-16T23:11:45;2.62;;;2.17;;
48124;SDS011;33908;47.436;18.918;2023-03-16T23:14:15;0.65;;;0.57;;
48124;SDS011;33908;47.436;18.918;2023-03-16T23:16:45;0.35;;;0.35;;
48124;SDS011;33908;47.436;18.918;2023-03-16T23:21:58;0.93;;;0.88;;
48124;SDS011;33908;47.436;18.918;2023-03-16T23:24:31;0.10;;;0.10;;
48124;SDS011;33908;47.436;18.918;2023-03-16T23:27:00;0.20;;;0.20;;
48124;SDS011;33908;47.436;18.918;2023-03-16T23:29:28;1.67;;;1.58;;
48124;SDS011;33908;47.436;18.918;2023-03-16T23:31:56;0.90;;;0.90;;
48124;SDS011;33908;47.436;18.918;2023-03-16T23:34:24;1.15;;;1.08;;
48124;SDS011;33908;47.436;18.918;2023-03-16T23:36:52;0.10;;;0.10;;
48124;SDS011;33908;47.436;18.918;2023-03-16T23:39:20;5.28;;;1.92;;
48124;SDS011;33908;47.436;18.918;2023-03-16T23:41:48;0.35;;;0.35;;
48124;SDS011;33908;47.436;18.918;2023-03-16T23:44:20;0.00;;;0.00;;
48124;SDS011;33908;47.436;18.918;2023-03-16T23:46:49;0.20;;;0.20;;
48124;SDS011;33908;47.436;18.918;2023-03-16T23:49:18;1.77;;;1.45;;
48124;SDS011;33908;47.436;18.918;2023-03-16T23:51:49;3.37;;;2.03;;
48124;SDS011;33908;47.436;18.918;2023-03-16T23:54:18;1.27;;;1.20;;
48124;SDS011;33908;47.436;18.918;2023-03-16T23:56:48;0.52;;;0.52;;
48124;SDS011;33908;47.436;18.918;2023-03-16T23:59:17;0.95;;;0.95;;
